Aurora, Texas
Current Conditions -  °F | °C
As of 11:53 AM on Wednesday 28 Jan 2015 (Local Time) from KAFW Reporting Station
Scattered Clouds Scattered Clouds  
Wind Chill: 73°   Ceiling: Unl
Heat Index: 73°   Visibility: 10mi
Dew Point: 43°   Wind: 8mph
Humidity: 34%   Direction: 180°S
Pressure: 30.07"   Gusts: NA
Location:  33.0495°N, 97.45°W
Report Text: KAFW 281753Z 18007KT 10SM SCT250 23/06 A3007 RMK AO2 SLP176 T02280061 10228 20089 58009
Loading
Personal Weather Stations






























Interactive Weather Map New forecast layout! Learn more

10-Day Weather Forecast

Advertisements
Track Severe Weather on mobile